Terminal Aerodrome Forecast
Issued by NWS

Home | Current Version | Previous Version | Text Only | Print | Product List | Glossary Off
Versions: 1 2 3 4 5 6 7 8 9 10 11 12 13 14 15 16 17 18 19 20 21 22

000
FTUS43 KGRB 240520
TAFRHI
TAF
KRHI 240520Z 2406/2506 18008KT P6SM -SHRA BKN035 OVC150
      TEMPO 2406/2409 3SM TSRA BR BKN015 OVC035CB
     FM240900 17007KT 2SM TSRA BR BKN005 OVC012CB
     FM241400 20009G15KT 5SM -SHRA BR BKN008 OVC015
     FM241800 24009G15KT 6SM HZ BKN015 BKN035
     FM250200 27004KT 5SM BR SCT015 BKN140=

USA.gov is the U.S. government's official web portal to all federal, state and local government web resources and services.